createdAt,value
2022-10-29T01:13:11.755Z,5.47
2022-10-29T01:21:20.370Z,5.00
2022-10-29T02:45:38.384Z,6.47
2022-10-29T03:27:24.037Z,6.37
2022-10-29T03:29:53.995Z,6.17
2022-10-29T03:32:20.716Z,6.55
2022-10-29T03:34:49.055Z,8.05
2022-10-29T03:37:19.048Z,6.72
2022-10-29T03:39:45.690Z,6.53
2022-10-29T03:42:14.047Z,9.68
2022-10-29T03:44:42.394Z,11.20
2022-10-29T03:47:10.715Z,15.80
2022-10-29T03:49:39.015Z,9.08
2022-10-29T03:52:07.367Z,6.80
2022-10-29T03:57:11.302Z,7.95
2022-10-29T03:59:39.601Z,8.28
2022-10-29T04:02:08.075Z,7.22
2022-10-29T04:04:36.269Z,7.78
2022-10-29T04:07:04.595Z,7.20
2022-10-29T04:09:32.937Z,7.28
2022-10-29T04:12:01.421Z,8.40
2022-10-29T04:14:29.866Z,7.47
2022-10-29T04:16:58.771Z,7.60
2022-10-29T04:19:27.127Z,7.42
2022-10-29T04:29:20.630Z,8.33
2022-10-29T04:31:48.921Z,8.78
2022-10-29T04:34:17.238Z,7.78
2022-10-29T04:36:45.648Z,9.08
2022-10-29T04:39:14.859Z,8.30
2022-10-29T04:41:42.322Z,9.28
2022-10-29T04:44:10.797Z,9.93
2022-10-29T04:46:39.087Z,7.90
2022-10-29T04:49:07.519Z,8.13
2022-10-29T04:51:35.823Z,8.23
2022-10-29T04:54:04.289Z,9.18
2022-10-29T04:59:08.188Z,9.95
2022-10-29T05:04:04.946Z,9.33
2022-10-29T05:06:33.289Z,8.73
2022-10-29T05:09:01.756Z,8.83
2022-10-29T05:11:32.555Z,8.48
2022-10-29T05:13:58.511Z,7.97
2022-10-29T05:16:26.808Z,9.38
2022-10-29T05:18:55.103Z,9.33
2022-10-29T05:21:23.446Z,9.45
2022-10-29T05:23:51.762Z,9.13
2022-10-29T05:26:20.100Z,8.30
2022-10-29T05:28:50.742Z,9.28
2022-10-29T05:31:19.117Z,8.60
2022-10-29T05:33:51.264Z,8.28
2022-10-29T05:38:51.527Z,9.75
2022-10-29T05:41:19.911Z,9.50
2022-10-29T05:46:25.471Z,8.38
2022-10-29T05:51:29.376Z,9.90
2022-10-29T05:56:33.488Z,10.08
2022-10-29T06:01:37.587Z,9.70
2022-10-29T06:04:06.160Z,9.85
2022-10-29T06:09:10.363Z,10.50
2022-10-29T06:11:41.102Z,9.05
2022-10-29T06:14:09.488Z,9.03
2022-10-29T06:19:18.612Z,9.80
2022-10-29T06:21:45.528Z,8.48
2022-10-29T06:24:13.929Z,9.65
2022-10-29T06:29:17.851Z,9.88
2022-10-29T06:31:46.200Z,8.90
2022-10-29T06:34:14.548Z,8.68
2022-10-29T06:36:42.857Z,8.28
2022-10-29T06:39:11.203Z,9.58
2022-10-29T06:41:39.557Z,8.38
2022-10-29T06:44:07.891Z,8.50
2022-10-29T06:46:38.412Z,9.58
2022-10-29T06:49:04.592Z,8.58
2022-10-29T06:51:33.869Z,8.60
2022-10-29T06:56:37.796Z,8.78
2022-10-29T06:59:06.179Z,8.43
2022-10-29T07:01:34.574Z,7.90
2022-10-29T07:04:02.837Z,9.05
2022-10-29T07:06:31.163Z,7.30
2022-10-29T07:08:59.491Z,7.87
2022-10-29T07:11:27.787Z,8.05
2022-10-29T07:13:56.119Z,7.33
2022-10-29T07:16:24.441Z,8.28
2022-10-29T07:18:52.740Z,8.83
2022-10-29T07:21:21.092Z,8.15
2022-10-29T07:23:49.375Z,7.83
2022-10-29T07:26:17.728Z,7.85
2022-10-29T07:28:48.507Z,7.37
2022-10-29T07:31:16.961Z,7.83
2022-10-29T07:33:42.760Z,7.53
2022-10-29T07:36:13.456Z,8.03
2022-10-29T07:38:41.907Z,7.70
2022-10-29T07:41:07.752Z,8.68
2022-10-29T07:43:36.094Z,9.53
2022-10-29T07:46:07.069Z,8.35
2022-10-29T07:48:35.948Z,8.28
2022-10-29T07:51:04.424Z,7.83
2022-10-29T07:56:08.700Z,9.43
2022-10-29T07:58:37.071Z,8.15
2022-10-29T08:01:05.621Z,7.95
2022-10-29T08:03:34.012Z,8.40
2022-10-29T08:06:02.330Z,8.98
2022-10-29T08:08:31.299Z,8.20
2022-10-29T08:11:00.965Z,8.35
2022-10-29T08:13:31.133Z,7.85
2022-10-29T08:15:57.717Z,8.60
2022-10-29T08:18:26.004Z,8.48
2022-10-29T08:20:57.197Z,8.33
2022-10-29T08:23:25.542Z,9.68
2022-10-29T08:25:51.525Z,9.30
2022-10-29T08:28:21.827Z,9.28
2022-10-29T08:30:50.274Z,9.45
2022-10-29T08:33:18.670Z,9.35
2022-10-29T08:35:47.079Z,9.35
2022-10-29T08:38:16.002Z,9.08
2022-10-29T08:40:59.603Z,9.65
2022-10-29T08:43:37.006Z,8.98
2022-10-29T08:46:05.894Z,9.20
2022-10-29T08:48:37.569Z,8.45
2022-10-29T08:51:07.156Z,8.95
2022-10-29T08:56:12.717Z,8.83
2022-10-29T09:01:16.751Z,9.80
2022-10-29T09:03:45.026Z,8.95
2022-10-29T09:06:13.420Z,8.00
2022-10-29T09:08:45.194Z,8.05
2022-10-29T09:11:15.313Z,7.35
2022-10-29T09:13:45.521Z,7.05
2022-10-29T09:16:16.455Z,7.20
2022-10-29T09:18:47.273Z,6.50
2022-10-29T09:21:17.178Z,7.37
2022-10-29T09:23:51.465Z,6.97
2022-10-29T09:26:20.728Z,7.17
2022-10-29T09:28:49.826Z,7.30
2022-10-29T09:31:19.624Z,7.62
2022-10-29T09:33:50.288Z,7.53
2022-10-29T09:36:16.268Z,7.30
2022-10-29T09:38:44.768Z,7.40
2022-10-29T09:41:14.807Z,7.33
2022-10-29T09:43:41.514Z,7.40
2022-10-29T09:46:10.577Z,7.78
2022-10-29T09:48:39.005Z,7.45
2022-10-29T09:51:10.994Z,7.25
2022-10-29T09:56:12.468Z,7.70
2022-10-29T09:58:40.899Z,6.67
2022-10-29T10:01:09.291Z,6.60
2022-10-29T10:03:37.654Z,6.62
2022-10-29T10:06:06.344Z,6.95
2022-10-29T10:08:34.684Z,6.33
2022-10-29T10:11:03.014Z,6.55
2022-10-29T10:13:31.352Z,6.40
2022-10-29T10:15:59.713Z,5.78
2022-10-29T10:18:28.051Z,7.17
2022-10-29T10:21:03.150Z,6.42
2022-10-29T10:23:33.097Z,7.10
2022-10-29T10:26:04.042Z,7.33
2022-10-29T10:28:30.038Z,6.72
2022-10-29T10:31:07.928Z,7.42
2022-10-29T10:33:36.415Z,7.70
2022-10-29T10:36:05.761Z,7.08
2022-10-29T10:38:40.673Z,7.12
2022-10-29T10:41:09.020Z,6.25
2022-10-29T10:43:37.387Z,6.40
2022-10-29T10:46:05.923Z,6.67
2022-10-29T10:51:12.449Z,6.78
2022-10-29T10:56:17.076Z,6.42
2022-10-29T10:58:46.547Z,6.35
2022-10-29T11:01:14.973Z,5.95
2022-10-29T11:03:43.260Z,6.47
2022-10-29T11:06:11.587Z,5.92
2022-10-29T11:08:39.932Z,6.62
2022-10-29T11:11:08.431Z,6.30
2022-10-29T11:13:36.772Z,6.25
2022-10-29T11:16:06.090Z,5.78
2022-10-29T11:18:37.053Z,5.65
2022-10-29T11:21:06.881Z,5.37
2022-10-29T11:23:36.283Z,5.78
2022-10-29T11:26:05.079Z,5.10
2022-10-29T11:28:33.499Z,5.97
2022-10-29T11:31:01.864Z,5.37
2022-10-29T11:33:31.982Z,5.97
2022-10-29T11:36:01.731Z,5.10
2022-10-29T11:38:28.889Z,6.00
2022-10-29T11:40:57.917Z,5.60
2022-10-29T11:43:26.253Z,5.40
2022-10-29T11:45:57.312Z,5.70
2022-10-29T11:48:26.920Z,5.72
2022-10-29T11:50:55.733Z,5.47
2022-10-29T11:56:03.057Z,5.62
2022-10-29T11:58:34.297Z,5.47
2022-10-29T12:01:00.166Z,6.50
2022-10-29T12:04:05.777Z,5.70
2022-10-29T12:09:24.040Z,5.30
2022-10-29T12:11:52.547Z,4.78
2022-10-29T12:14:23.900Z,5.45
2022-10-29T12:16:50.849Z,5.17
2022-10-29T12:19:21.110Z,5.20
2022-10-29T12:21:49.986Z,5.45
2022-10-29T12:24:20.847Z,4.70
2022-10-29T12:26:49.651Z,5.03
2022-10-29T12:29:17.951Z,4.83
2022-10-29T12:31:46.342Z,4.70
2022-10-29T12:34:14.848Z,5.10
2022-10-29T12:36:43.213Z,5.22
2022-10-29T12:39:12.877Z,4.83
2022-10-29T12:41:41.522Z,4.90
2022-10-29T12:44:12.185Z,4.55
2022-10-29T12:46:38.918Z,4.37
2022-10-29T12:49:07.627Z,3.90
2022-10-29T12:51:36.915Z,4.83
2022-10-29T12:57:04.983Z,4.62
2022-10-29T12:59:36.255Z,4.22
2022-10-29T13:02:39.153Z,4.50
2022-10-29T13:08:12.160Z,3.83
2022-10-29T13:10:50.826Z,4.17
2022-10-29T13:13:24.434Z,4.05
2022-10-29T13:15:58.861Z,3.80
2022-10-29T13:18:27.216Z,4.30
2022-10-29T13:20:58.023Z,4.40
2022-10-29T13:23:33.543Z,4.40
2022-10-29T13:26:02.603Z,4.22
2022-10-29T13:28:49.844Z,3.80
2022-10-29T13:31:35.713Z,3.83
2022-10-29T13:34:04.075Z,4.53
2022-10-29T13:36:38.573Z,3.92
2022-10-29T13:39:19.508Z,4.00
2022-10-29T13:41:51.139Z,3.95
2022-10-29T13:44:20.690Z,3.87
2022-10-29T13:46:49.080Z,4.62
2022-10-29T13:49:18.069Z,4.10
2022-10-29T13:51:50.227Z,4.50
2022-10-29T13:56:54.526Z,4.85
2022-10-29T13:59:24.283Z,4.47
2022-10-29T14:01:54.148Z,4.15
2022-10-29T14:04:23.932Z,4.33
2022-10-29T14:06:54.703Z,4.10
2022-10-29T14:09:21.243Z,3.85
2022-10-29T14:11:50.207Z,3.92
2022-10-29T14:14:25.710Z,4.10
2022-10-29T14:17:10.649Z,4.72
2022-10-29T14:19:38.866Z,4.17
2022-10-29T14:22:16.755Z,3.90
2022-10-29T14:24:45.081Z,4.00
2022-10-29T14:27:13.510Z,4.05
2022-10-29T14:29:41.878Z,4.55
2022-10-29T14:34:47.465Z,4.10
2022-10-29T14:37:15.837Z,4.22
2022-10-29T14:39:56.974Z,4.72
2022-10-29T14:42:14.012Z,5.50
2022-10-29T14:44:42.301Z,5.08
2022-10-29T14:47:13.290Z,4.75
2022-10-29T14:49:41.649Z,4.03
2022-10-29T14:52:15.008Z,4.40
2022-10-29T14:57:18.961Z,4.95
2022-10-29T14:59:47.343Z,4.97
2022-10-29T15:02:36.792Z,5.33
2022-10-29T15:04:47.847Z,5.20
2022-10-29T15:07:16.535Z,4.65
2022-10-29T15:09:46.600Z,5.05
2022-10-29T15:12:21.366Z,4.42
2022-10-29T15:14:48.049Z,4.22
2022-10-29T15:17:18.101Z,4.10
2022-10-29T15:19:46.510Z,4.12
2022-10-29T15:22:16.111Z,5.03
2022-10-29T15:24:45.833Z,4.90
2022-10-29T15:27:14.197Z,5.05
2022-10-29T15:29:43.389Z,4.50
2022-10-29T15:32:14.070Z,5.67
2022-10-29T15:34:40.852Z,5.17
2022-10-29T15:37:17.177Z,5.20
2022-10-29T15:40:03.002Z,6.75
2022-10-29T15:42:31.262Z,4.97
2022-10-29T15:45:06.596Z,5.37
2022-10-29T15:47:34.895Z,5.53
2022-10-29T15:50:03.296Z,5.42
2022-10-29T15:52:32.449Z,6.90
2022-10-29T15:57:37.082Z,6.60
2022-10-29T16:00:06.445Z,6.10
2022-10-29T16:02:34.836Z,6.97
2022-10-29T16:05:03.145Z,6.60
2022-10-29T16:07:31.448Z,6.45
2022-10-29T16:09:59.921Z,6.37
2022-10-29T16:12:28.126Z,5.85
2022-10-29T16:14:56.459Z,6.22
2022-10-29T16:17:24.841Z,5.97
2022-10-29T16:19:53.188Z,6.42
2022-10-29T16:22:23.241Z,5.92
2022-10-29T16:24:49.921Z,5.35
2022-10-29T16:27:18.837Z,6.42
2022-10-29T16:29:47.449Z,6.92
2022-10-29T16:32:15.880Z,6.22
2022-10-29T16:34:44.206Z,5.60
2022-10-29T16:37:14.102Z,6.03
2022-10-29T16:39:43.097Z,6.28
2022-10-29T16:42:14.206Z,5.70
2022-10-29T16:44:42.572Z,5.70
2022-10-29T16:47:11.190Z,6.03
2022-10-29T16:49:39.790Z,5.40
2022-10-29T16:52:09.893Z,5.60
2022-10-29T16:57:13.886Z,6.22
2022-10-29T16:59:42.394Z,5.70
2022-10-29T17:02:11.099Z,5.83
2022-10-29T17:04:39.609Z,7.12
2022-10-29T17:07:07.960Z,8.03
2022-10-29T17:09:36.348Z,10.20
2022-10-29T17:12:07.362Z,11.25
2022-10-29T17:14:33.338Z,11.63
2022-10-29T17:17:02.273Z,14.55
2022-10-29T17:19:30.708Z,15.25
2022-10-29T17:21:59.096Z,13.43
2022-10-29T17:24:27.447Z,11.95
2022-10-29T17:26:55.887Z,10.32
2022-10-29T17:29:25.950Z,10.78
2022-10-29T17:31:53.361Z,10.13
2022-10-29T17:34:21.655Z,10.30
2022-10-29T17:36:51.824Z,8.45
2022-10-29T17:39:18.570Z,7.42
2022-10-29T17:41:47.057Z,7.22
2022-10-29T17:44:15.669Z,6.78
2022-10-29T17:46:44.038Z,7.05
2022-10-29T17:49:12.408Z,6.92
2022-10-29T17:51:40.850Z,7.95
2022-10-29T17:56:44.805Z,7.62
2022-10-29T17:59:13.175Z,7.55
2022-10-29T18:01:43.447Z,7.70
2022-10-29T18:04:09.953Z,8.10
2022-10-29T18:06:38.369Z,10.10
2022-10-29T18:09:06.779Z,8.10
2022-10-29T18:11:35.148Z,8.90
2022-10-29T18:14:03.563Z,7.87
2022-10-29T18:16:31.919Z,7.67
2022-10-29T18:19:02.170Z,7.70
2022-10-29T18:21:29.114Z,7.78
2022-10-29T18:24:00.104Z,9.05
2022-10-29T18:26:25.943Z,8.58
2022-10-29T18:28:54.270Z,8.95
2022-10-29T18:31:22.723Z,9.25
2022-10-29T18:33:51.109Z,9.88
2022-10-29T18:36:19.581Z,8.85
2022-10-29T18:38:50.675Z,8.48
2022-10-29T18:41:20.734Z,8.13
2022-10-29T18:43:47.470Z,8.13
2022-10-29T18:46:15.791Z,7.87
2022-10-29T18:48:44.123Z,7.28
2022-10-29T18:51:12.481Z,8.40
2022-10-29T18:56:16.532Z,8.15
2022-10-29T18:58:44.869Z,7.95
2022-10-29T19:01:13.301Z,8.50
2022-10-29T19:03:41.535Z,7.35
2022-10-29T19:06:12.401Z,7.60
2022-10-29T19:08:40.677Z,7.30
2022-10-29T19:11:06.833Z,6.20
2022-10-29T19:16:10.858Z,7.75
2022-10-29T19:18:39.211Z,6.97
2022-10-29T19:21:07.563Z,7.30
2022-10-29T19:23:36.081Z,7.22
2022-10-29T19:26:04.787Z,6.85
2022-10-29T19:28:33.155Z,6.47
2022-10-29T19:31:04.264Z,6.53
2022-10-29T19:33:32.602Z,6.87
2022-10-29T19:36:03.316Z,6.33
2022-10-29T19:38:29.322Z,6.22
2022-10-29T19:40:59.351Z,6.35
2022-10-29T19:43:26.025Z,6.80
2022-10-29T19:45:54.384Z,6.08
2022-10-29T19:48:25.181Z,6.15
2022-10-29T19:50:53.744Z,5.85
2022-10-29T19:56:00.517Z,7.70
2022-10-29T19:58:28.844Z,5.85
2022-10-29T20:00:57.182Z,5.95
2022-10-29T20:03:25.472Z,6.33
2022-10-29T20:05:53.835Z,7.08
2022-10-29T20:08:22.117Z,6.03
2022-10-29T20:10:55.285Z,6.65
2022-10-29T20:13:23.617Z,6.90
2022-10-29T20:15:51.966Z,7.08
2022-10-29T20:18:22.655Z,7.20
2022-10-29T20:20:48.616Z,6.90
2022-10-29T20:23:16.954Z,7.20
2022-10-29T20:28:21.439Z,6.78
2022-10-29T20:30:49.775Z,7.12
2022-10-29T20:33:18.104Z,7.28
2022-10-29T20:35:46.491Z,6.70
2022-10-29T20:38:14.806Z,6.62
2022-10-29T20:40:43.118Z,7.35
2022-10-29T20:43:11.501Z,6.80
2022-10-29T20:45:39.783Z,6.87
2022-10-29T20:48:08.225Z,7.95
2022-10-29T20:50:36.532Z,8.58
2022-10-29T20:53:07.353Z,7.33
2022-10-29T20:58:08.753Z,8.23
2022-10-29T21:00:37.110Z,6.92
2022-10-29T21:03:05.451Z,7.17
2022-10-29T21:05:33.767Z,7.45
2022-10-29T21:08:02.093Z,7.83
2022-10-29T21:10:30.422Z,7.08
2022-10-29T21:12:59.326Z,7.53
2022-10-29T21:15:27.179Z,6.83
2022-10-29T21:17:55.539Z,6.12
2022-10-29T21:20:23.863Z,6.67
2022-10-29T21:22:52.216Z,6.97
2022-10-29T21:25:20.589Z,7.00
2022-10-29T21:27:50.579Z,5.90
2022-10-29T21:30:17.416Z,6.45
2022-10-29T21:32:45.834Z,5.62
2022-10-29T21:35:14.287Z,6.40
2022-10-29T21:37:42.621Z,5.97
2022-10-29T21:40:11.558Z,5.22
2022-10-29T21:42:39.938Z,6.17
2022-10-29T21:45:08.602Z,5.47
2022-10-29T21:47:36.973Z,6.28
2022-10-29T21:50:05.926Z,5.55
2022-10-29T21:52:34.220Z,5.40
2022-10-29T21:57:38.113Z,7.10
2022-10-29T22:00:07.619Z,6.37
2022-10-29T22:02:35.930Z,6.55
2022-10-29T22:05:04.450Z,5.97
2022-10-29T22:07:32.764Z,6.37
2022-10-29T22:10:01.110Z,6.67
2022-10-29T22:12:29.418Z,6.25
2022-10-29T22:14:58.332Z,6.03
2022-10-29T22:17:28.553Z,6.28
2022-10-29T22:19:56.855Z,6.97
2022-10-29T22:22:25.195Z,6.25
2022-10-29T22:24:53.550Z,5.92
2022-10-29T22:27:21.873Z,5.97
2022-10-29T22:29:53.532Z,5.67
2022-10-29T22:32:18.563Z,6.12
2022-10-29T22:34:46.902Z,6.03
2022-10-29T22:37:15.235Z,6.20
2022-10-29T22:39:46.640Z,5.70
2022-10-29T22:42:12.452Z,5.60
2022-10-29T22:44:40.797Z,6.45
2022-10-29T22:47:09.133Z,5.40
2022-10-29T22:49:37.459Z,6.30
2022-10-29T22:52:05.922Z,6.08
2022-10-29T22:57:09.831Z,5.85
2022-10-29T22:59:38.144Z,5.17
2022-10-29T23:02:06.577Z,5.20
2022-10-29T23:04:36.507Z,4.83
2022-10-29T23:07:03.238Z,5.33
2022-10-29T23:09:31.596Z,4.92
2022-10-29T23:11:59.929Z,5.55
2022-10-29T23:14:28.716Z,5.37
2022-10-29T23:16:57.123Z,5.85
2022-10-29T23:19:25.552Z,5.40
2022-10-29T23:21:53.988Z,5.65
2022-10-29T23:24:22.409Z,5.55
2022-10-29T23:26:50.833Z,5.05
2022-10-29T23:29:19.176Z,5.00
2022-10-29T23:31:47.562Z,5.00
2022-10-29T23:34:17.602Z,5.45
2022-10-29T23:36:44.423Z,4.80
2022-10-29T23:39:12.877Z,4.87
2022-10-29T23:41:41.202Z,4.72
2022-10-29T23:44:11.195Z,5.12
2022-10-29T23:50:41.448Z,5.25
2022-10-29T23:53:07.417Z,5.05
2022-10-29T23:58:13.612Z,5.05
